createdAt,value
2022-12-31T00:01:44.087Z,14.07
2022-12-31T00:04:13.655Z,14.83
2022-12-31T00:06:43.137Z,14.93
2022-12-31T00:09:12.790Z,13.08
2022-12-31T00:11:42.860Z,14.78
2022-12-31T00:14:12.312Z,13.53
2022-12-31T00:16:44.139Z,14.25
2022-12-31T00:19:14.516Z,13.32
2022-12-31T00:21:45.019Z,13.95
2022-12-31T00:24:14.566Z,13.83
2022-12-31T00:26:44.088Z,13.50
2022-12-31T00:29:13.611Z,14.43
2022-12-31T00:31:43.028Z,13.72
2022-12-31T00:34:12.630Z,12.47
2022-12-31T00:36:43.031Z,14.15
2022-12-31T00:39:12.479Z,13.68
2022-12-31T00:41:43.846Z,13.20
2022-12-31T00:44:14.487Z,13.10
2022-12-31T00:49:13.441Z,13.93
2022-12-31T00:51:43.109Z,12.53
2022-12-31T00:54:12.617Z,12.37
2022-12-31T00:56:42.128Z,11.60
2022-12-31T00:59:11.566Z,11.55
2022-12-31T01:01:43.865Z,12.53
2022-12-31T01:04:16.722Z,12.05
2022-12-31T01:06:47.363Z,12.07
2022-12-31T01:09:18.116Z,11.93
2022-12-31T01:11:49.747Z,11.70
2022-12-31T01:14:20.728Z,12.00
2022-12-31T01:16:54.161Z,11.63
2022-12-31T01:19:26.607Z,12.13
2022-12-31T01:21:57.867Z,12.10
2022-12-31T01:24:27.441Z,11.90
2022-12-31T01:26:58.034Z,12.40
2022-12-31T01:29:27.941Z,11.25
2022-12-31T01:31:57.465Z,12.82
2022-12-31T01:34:27.241Z,11.63
2022-12-31T01:36:56.735Z,13.78
2022-12-31T01:39:26.286Z,12.35
2022-12-31T01:41:55.726Z,12.97
2022-12-31T01:44:28.227Z,13.25
2022-12-31T01:47:03.993Z,13.18
2022-12-31T01:49:44.963Z,12.53
2022-12-31T01:52:32.635Z,12.70
2022-12-31T01:55:07.959Z,13.13
2022-12-31T01:57:38.659Z,13.40
2022-12-31T02:02:40.369Z,11.57
2022-12-31T02:12:54.261Z,12.35
2022-12-31T02:15:27.309Z,14.10
2022-12-31T02:23:42.560Z,12.60
2022-12-31T02:26:33.312Z,12.50
2022-12-31T02:29:22.355Z,12.45
2022-12-31T02:31:55.281Z,13.87
2022-12-31T02:34:34.325Z,13.68
2022-12-31T02:37:06.902Z,12.13
2022-12-31T02:39:37.673Z,12.28
2022-12-31T02:42:07.628Z,11.85
2022-12-31T02:44:39.163Z,11.60
2022-12-31T02:47:17.099Z,11.85
2022-12-31T02:50:13.299Z,11.60
2022-12-31T02:52:45.787Z,12.13
2022-12-31T02:55:27.055Z,11.50
2022-12-31T02:57:59.547Z,11.68
2022-12-31T03:00:50.727Z,11.05
2022-12-31T03:03:22.536Z,11.25
2022-12-31T03:05:53.254Z,11.90
2022-12-31T03:08:27.635Z,12.07
2022-12-31T03:10:57.175Z,11.25
2022-12-31T03:13:27.085Z,11.90
2022-12-31T03:15:56.639Z,12.10
2022-12-31T03:18:27.896Z,11.90
2022-12-31T03:21:14.931Z,11.63
2022-12-31T03:25:40.243Z,11.68
2022-12-31T03:28:12.704Z,12.43
2022-12-31T03:30:45.832Z,11.88
2022-12-31T03:33:16.612Z,11.45
2022-12-31T03:35:48.158Z,11.55
2022-12-31T03:38:20.611Z,11.80
2022-12-31T03:40:52.856Z,11.48
2022-12-31T03:43:22.403Z,12.10
2022-12-31T03:45:53.219Z,12.37
2022-12-31T03:48:25.629Z,11.60
2022-12-31T03:50:55.201Z,11.75
2022-12-31T03:53:24.712Z,11.25
2022-12-31T03:55:54.709Z,11.35
2022-12-31T03:58:24.322Z,11.12
2022-12-31T04:00:53.848Z,11.25
2022-12-31T04:03:23.477Z,10.98
2022-12-31T04:05:57.090Z,11.60
2022-12-31T04:08:28.080Z,11.20
2022-12-31T04:10:57.504Z,11.68
2022-12-31T04:13:27.056Z,11.03
2022-12-31T04:15:57.051Z,11.63
2022-12-31T04:18:26.481Z,12.28
2022-12-31T04:20:56.401Z,13.13
2022-12-31T04:23:25.838Z,12.03
2022-12-31T04:25:55.268Z,11.80
2022-12-31T04:28:26.422Z,11.22
2022-12-31T04:41:09.404Z,10.53
2022-12-31T04:46:07.889Z,10.68
2022-12-31T04:51:06.763Z,10.93
2022-12-31T04:53:36.574Z,11.05
2022-12-31T04:56:06.530Z,11.97
2022-12-31T04:58:36.244Z,11.10
2022-12-31T05:01:08.323Z,10.53
2022-12-31T05:03:38.660Z,11.18
2022-12-31T05:06:11.210Z,12.13
2022-12-31T05:08:40.752Z,12.18
2022-12-31T05:11:10.422Z,12.30
2022-12-31T05:13:40.896Z,12.33
2022-12-31T05:16:11.381Z,11.77
2022-12-31T05:21:11.422Z,11.10
2022-12-31T05:23:40.868Z,10.35
2022-12-31T05:26:10.303Z,10.88
2022-12-31T05:28:39.909Z,11.73
2022-12-31T05:31:09.583Z,10.53
2022-12-31T05:33:39.488Z,9.80
2022-12-31T05:36:10.033Z,10.72
2022-12-31T05:38:40.042Z,11.20
2022-12-31T05:41:12.372Z,11.90
2022-12-31T05:43:42.846Z,11.33
2022-12-31T05:46:12.324Z,11.75
2022-12-31T05:48:41.818Z,11.80
2022-12-31T05:51:11.295Z,12.45
2022-12-31T05:53:40.911Z,12.68
2022-12-31T05:56:10.332Z,11.30
2022-12-31T05:58:40.145Z,12.35
2022-12-31T06:01:09.612Z,11.70
2022-12-31T06:03:39.032Z,12.75
2022-12-31T06:06:09.203Z,11.83
2022-12-31T06:08:38.637Z,11.03
2022-12-31T06:11:08.162Z,11.33
2022-12-31T06:13:38.959Z,12.65
2022-12-31T06:16:10.541Z,12.37
2022-12-31T06:18:40.228Z,10.95
2022-12-31T06:21:10.235Z,11.77
2022-12-31T06:23:42.399Z,12.55
2022-12-31T06:26:11.902Z,11.33
2022-12-31T06:28:41.428Z,10.82
2022-12-31T06:31:13.935Z,11.20
2022-12-31T06:33:44.125Z,11.10
2022-12-31T06:36:16.848Z,11.60
2022-12-31T06:43:46.939Z,12.15
2022-12-31T06:46:18.855Z,11.15
2022-12-31T06:48:48.649Z,10.70
2022-12-31T06:51:22.733Z,15.07
2022-12-31T06:53:53.128Z,12.58
2022-12-31T06:56:42.351Z,12.15
2022-12-31T06:59:14.901Z,12.15
2022-12-31T07:02:05.873Z,11.15
2022-12-31T07:05:01.539Z,11.53
2022-12-31T07:07:50.196Z,12.65
2022-12-31T07:10:48.959Z,11.60
2022-12-31T07:13:30.865Z,11.15
2022-12-31T07:16:11.906Z,11.22
2022-12-31T07:18:48.034Z,11.10
2022-12-31T07:21:20.503Z,10.50
2022-12-31T07:23:51.879Z,10.68
2022-12-31T07:26:56.916Z,11.20
2022-12-31T07:29:44.245Z,11.30
2022-12-31T07:32:26.027Z,10.80
2022-12-31T07:35:07.311Z,11.88
2022-12-31T07:38:10.654Z,10.65
2022-12-31T07:43:22.018Z,9.55
2022-12-31T07:46:17.094Z,10.40
2022-12-31T07:48:47.642Z,10.58
2022-12-31T07:51:17.563Z,9.13
2022-12-31T07:53:47.399Z,9.35
2022-12-31T07:56:16.894Z,8.98
2022-12-31T07:59:01.469Z,9.33
2022-12-31T08:01:52.069Z,9.03
2022-12-31T08:04:42.769Z,9.90
2022-12-31T08:07:39.366Z,9.28
2022-12-31T08:10:18.462Z,9.65
2022-12-31T08:12:50.342Z,9.28
2022-12-31T08:15:26.884Z,9.40
2022-12-31T08:17:53.774Z,8.60
2022-12-31T08:20:26.707Z,10.37
2022-12-31T08:23:11.367Z,9.45
2022-12-31T08:26:00.535Z,9.53
2022-12-31T08:28:41.677Z,9.48
2022-12-31T08:31:20.238Z,9.38
2022-12-31T08:34:07.841Z,9.53
2022-12-31T08:36:53.239Z,10.32
2022-12-31T08:39:40.803Z,10.23
2022-12-31T08:42:22.121Z,9.77
2022-12-31T08:45:12.698Z,9.65
2022-12-31T08:47:45.397Z,8.70
2022-12-31T08:50:17.463Z,8.88
2022-12-31T08:52:49.285Z,9.38
2022-12-31T08:55:19.739Z,9.20
2022-12-31T08:58:15.425Z,9.18
2022-12-31T09:00:45.439Z,9.30
2022-12-31T09:03:27.197Z,9.18
2022-12-31T09:06:08.732Z,7.28
2022-12-31T09:08:59.699Z,8.00
2022-12-31T09:11:52.854Z,8.45
2022-12-31T09:14:42.235Z,8.58
2022-12-31T09:17:36.043Z,9.50
2022-12-31T09:20:08.272Z,8.60
2022-12-31T09:25:06.906Z,7.95
2022-12-31T09:27:54.373Z,7.65
2022-12-31T09:30:24.036Z,7.62
2022-12-31T09:33:08.971Z,7.92
2022-12-31T09:35:57.436Z,7.67
2022-12-31T09:38:42.790Z,6.85
2022-12-31T09:41:18.260Z,8.15
2022-12-31T09:44:12.015Z,7.72
2022-12-31T09:47:19.089Z,7.75
2022-12-31T09:50:14.283Z,7.75
2022-12-31T09:53:13.483Z,7.62
2022-12-31T09:56:05.947Z,7.60
2022-12-31T09:58:38.921Z,7.50
2022-12-31T10:01:37.427Z,7.83
2022-12-31T10:04:18.833Z,7.85
2022-12-31T10:07:13.085Z,7.58
2022-12-31T10:09:48.252Z,7.67
2022-12-31T10:12:29.857Z,7.12
2022-12-31T10:15:08.232Z,7.35
2022-12-31T10:17:45.616Z,7.45
2022-12-31T10:20:18.159Z,7.55
2022-12-31T10:22:53.581Z,7.67
2022-12-31T10:25:41.031Z,6.33
2022-12-31T10:28:25.424Z,6.70
2022-12-31T10:30:57.974Z,7.33
2022-12-31T10:33:33.395Z,6.80
2022-12-31T10:36:32.866Z,7.15
2022-12-31T10:39:14.475Z,7.42
2022-12-31T10:44:50.427Z,8.18
2022-12-31T10:47:40.651Z,7.13
2022-12-31T10:50:42.095Z,6.53
2022-12-31T10:53:38.637Z,6.97
2022-12-31T10:56:17.695Z,6.28
2022-12-31T10:59:13.180Z,6.55
2022-12-31T11:02:03.869Z,7.47
2022-12-31T11:04:42.164Z,7.13
2022-12-31T11:07:17.429Z,6.75
2022-12-31T11:10:20.263Z,7.15
2022-12-31T11:15:37.278Z,6.55
2022-12-31T11:18:21.246Z,7.00
2022-12-31T11:21:13.412Z,6.47
2022-12-31T11:24:07.129Z,6.40
2022-12-31T11:26:56.032Z,6.37
2022-12-31T11:29:44.367Z,7.03
2022-12-31T11:32:31.385Z,6.90
2022-12-31T11:35:21.777Z,7.22
2022-12-31T11:37:54.270Z,7.17
2022-12-31T11:40:44.391Z,6.65
2022-12-31T11:43:29.987Z,6.37
2022-12-31T11:46:19.085Z,6.85
2022-12-31T11:49:09.723Z,7.42
2022-12-31T11:51:46.921Z,7.35
2022-12-31T11:54:25.467Z,6.77
2022-12-31T11:57:03.902Z,7.37
2022-12-31T11:59:35.341Z,7.60
2022-12-31T12:02:08.273Z,7.35
2022-12-31T12:07:12.447Z,6.00
2022-12-31T12:09:44.904Z,6.70
2022-12-31T12:12:16.009Z,6.65
2022-12-31T12:14:47.920Z,7.47
2022-12-31T12:17:20.815Z,8.27
2022-12-31T12:19:53.847Z,6.20
2022-12-31T12:22:27.117Z,6.53
2022-12-31T12:25:00.375Z,6.80
2022-12-31T12:27:33.282Z,6.70
2022-12-31T12:30:25.167Z,6.55
2022-12-31T12:33:05.148Z,6.67
2022-12-31T12:35:36.911Z,6.50
2022-12-31T12:38:18.455Z,6.60
2022-12-31T12:41:00.156Z,7.35
2022-12-31T12:43:35.652Z,6.40
2022-12-31T12:46:11.065Z,6.80
2022-12-31T12:48:43.681Z,6.67
2022-12-31T12:51:19.840Z,5.92
2022-12-31T12:53:58.843Z,6.22
2022-12-31T12:56:31.351Z,6.40
2022-12-31T12:59:07.037Z,5.97
2022-12-31T13:01:59.418Z,6.05
2022-12-31T13:04:34.700Z,6.83
2022-12-31T13:07:21.387Z,6.90
2022-12-31T13:10:04.466Z,7.03
2022-12-31T13:15:29.378Z,6.97
2022-12-31T13:18:11.183Z,6.60
2022-12-31T13:20:58.825Z,7.03
2022-12-31T13:23:42.630Z,7.55
2022-12-31T13:26:18.371Z,6.60
2022-12-31T13:28:51.012Z,6.37
2022-12-31T13:31:26.772Z,6.67
2022-12-31T13:34:09.896Z,6.50
2022-12-31T13:36:42.791Z,7.33
2022-12-31T13:39:18.215Z,6.60
2022-12-31T13:41:59.571Z,7.83
2022-12-31T13:44:37.952Z,7.17
2022-12-31T13:47:25.712Z,7.20
2022-12-31T13:49:58.223Z,7.08
2022-12-31T13:52:45.541Z,7.15
2022-12-31T13:55:32.950Z,6.72
2022-12-31T13:58:31.290Z,6.95
2022-12-31T14:01:34.241Z,6.50
2022-12-31T14:04:21.779Z,6.30
2022-12-31T14:07:06.246Z,7.03
2022-12-31T14:09:38.201Z,6.27
2022-12-31T14:12:30.412Z,6.75
2022-12-31T14:15:25.870Z,6.62
2022-12-31T14:18:13.574Z,6.58
2022-12-31T14:20:59.275Z,6.35
2022-12-31T14:23:46.626Z,6.20
2022-12-31T14:26:34.327Z,7.03
2022-12-31T14:29:14.463Z,7.10
2022-12-31T14:31:53.061Z,5.30
2022-12-31T14:34:32.194Z,6.45
2022-12-31T14:37:36.419Z,6.95
2022-12-31T14:40:20.663Z,6.75
2022-12-31T14:43:09.629Z,7.28
2022-12-31T14:45:58.497Z,6.17
2022-12-31T14:48:50.746Z,6.27
2022-12-31T14:51:20.739Z,6.50
2022-12-31T14:53:58.586Z,6.15
2022-12-31T14:59:02.997Z,6.72
2022-12-31T15:01:32.675Z,7.70
2022-12-31T15:04:02.209Z,7.80
2022-12-31T15:06:38.658Z,8.45
2022-12-31T15:09:14.134Z,7.95
2022-12-31T15:12:02.243Z,7.67
2022-12-31T15:14:46.611Z,8.53
2022-12-31T15:17:45.288Z,8.80
2022-12-31T15:20:37.072Z,8.98
2022-12-31T15:23:27.913Z,8.73
2022-12-31T15:26:00.442Z,8.38
2022-12-31T15:28:39.637Z,8.30
2022-12-31T15:31:20.588Z,8.03
2022-12-31T15:34:02.273Z,8.85
2022-12-31T15:36:35.936Z,8.83
2022-12-31T15:39:19.513Z,9.25
2022-12-31T15:42:35.490Z,9.33
2022-12-31T15:44:31.917Z,9.20
2022-12-31T15:47:28.488Z,8.95
2022-12-31T15:50:01.675Z,8.83
2022-12-31T15:52:36.996Z,9.48
2022-12-31T15:55:08.269Z,9.03
2022-12-31T15:57:44.829Z,7.83
2022-12-31T16:00:20.606Z,9.45
2022-12-31T16:02:53.308Z,10.65
2022-12-31T16:05:26.845Z,10.23
2022-12-31T16:08:01.178Z,8.90
2022-12-31T16:10:37.172Z,9.65
2022-12-31T16:13:06.749Z,8.60
2022-12-31T16:15:37.806Z,8.63
2022-12-31T16:18:22.605Z,8.38
2022-12-31T16:20:48.931Z,9.30
2022-12-31T16:23:21.470Z,8.78
2022-12-31T16:25:54.221Z,8.43
2022-12-31T16:28:32.447Z,8.50
2022-12-31T16:31:11.399Z,9.10
2022-12-31T16:33:40.973Z,8.80
2022-12-31T16:36:25.194Z,9.15
2022-12-31T16:38:59.454Z,8.75
2022-12-31T16:41:32.032Z,9.03
2022-12-31T16:44:01.482Z,9.33
2022-12-31T16:46:33.946Z,9.25
2022-12-31T16:49:09.743Z,9.73
2022-12-31T16:51:40.872Z,9.75
2022-12-31T16:54:18.546Z,9.23
2022-12-31T16:56:45.047Z,11.28
2022-12-31T16:59:24.095Z,11.20
2022-12-31T17:02:00.090Z,11.10
2022-12-31T17:04:29.696Z,9.85
2022-12-31T17:07:20.320Z,10.53
2022-12-31T17:09:51.462Z,10.63
2022-12-31T17:12:27.175Z,10.55
2022-12-31T17:14:59.767Z,10.03
2022-12-31T17:17:34.934Z,9.68
2022-12-31T17:20:10.138Z,11.33
2022-12-31T17:22:44.535Z,11.45
2022-12-31T17:25:23.193Z,11.80
2022-12-31T17:28:07.023Z,13.30
2022-12-31T17:30:36.246Z,12.93
2022-12-31T17:33:23.128Z,12.10
2022-12-31T17:36:15.539Z,13.90
2022-12-31T17:38:46.699Z,13.90
2022-12-31T17:41:24.018Z,12.93
2022-12-31T17:43:56.717Z,13.50
2022-12-31T17:46:27.821Z,13.22
2022-12-31T17:49:01.053Z,13.38
2022-12-31T17:54:01.702Z,13.85
2022-12-31T17:56:31.172Z,14.23
2022-12-31T17:59:00.634Z,15.70
2022-12-31T18:01:31.315Z,15.83
2022-12-31T18:04:00.866Z,13.13
2022-12-31T18:06:30.316Z,14.85
2022-12-31T18:09:00.208Z,15.95
2022-12-31T18:11:29.929Z,16.57
2022-12-31T18:16:28.162Z,13.83
2022-12-31T18:19:00.624Z,13.38
2022-12-31T18:21:35.196Z,13.38
2022-12-31T18:24:05.924Z,13.13
2022-12-31T18:26:35.776Z,13.55
2022-12-31T18:29:16.957Z,12.25
2022-12-31T18:31:49.492Z,12.78
2022-12-31T18:34:19.628Z,11.95
2022-12-31T18:36:49.116Z,12.50
2022-12-31T18:39:19.012Z,12.25
2022-12-31T18:41:49.777Z,11.35
2022-12-31T18:44:19.694Z,12.33
2022-12-31T18:46:49.233Z,13.48
2022-12-31T18:49:18.667Z,13.18
2022-12-31T18:51:50.312Z,13.60
2022-12-31T18:54:19.734Z,13.95
2022-12-31T18:56:53.960Z,14.35
2022-12-31T18:59:20.307Z,14.15
2022-12-31T19:01:49.934Z,13.85
2022-12-31T19:04:26.987Z,15.10
2022-12-31T19:06:52.419Z,14.18
2022-12-31T19:11:53.437Z,13.18
2022-12-31T19:14:27.013Z,14.65
2022-12-31T19:19:28.271Z,15.20
2022-12-31T19:21:57.692Z,13.90
2022-12-31T19:24:28.702Z,14.70
2022-12-31T19:26:58.674Z,15.18
2022-12-31T19:29:30.056Z,15.63
2022-12-31T19:32:01.222Z,16.73
2022-12-31T19:34:30.736Z,14.73
2022-12-31T19:37:00.172Z,15.85
2022-12-31T19:39:29.789Z,14.85
2022-12-31T19:42:00.017Z,15.75
2022-12-31T19:44:29.532Z,16.48
2022-12-31T19:46:58.948Z,14.65
2022-12-31T19:49:28.390Z,16.90
2022-12-31T19:51:58.376Z,15.20
2022-12-31T19:54:27.810Z,14.93
2022-12-31T19:56:57.248Z,15.45
2022-12-31T19:59:26.734Z,15.75
2022-12-31T20:01:56.283Z,15.30
2022-12-31T20:04:26.779Z,15.15
2022-12-31T20:06:56.320Z,15.00
2022-12-31T20:09:25.772Z,14.58
2022-12-31T20:11:55.649Z,14.28
2022-12-31T20:14:25.905Z,14.33
2022-12-31T20:16:56.245Z,14.23
2022-12-31T20:19:25.749Z,13.32
2022-12-31T20:21:55.186Z,14.15
2022-12-31T20:24:24.662Z,13.00
2022-12-31T20:26:54.089Z,13.78
2022-12-31T20:29:24.497Z,13.15
2022-12-31T20:31:54.039Z,12.90
2022-12-31T20:34:23.747Z,12.73
2022-12-31T20:36:53.172Z,13.67
2022-12-31T20:39:23.092Z,11.53
2022-12-31T20:41:52.514Z,13.80
2022-12-31T20:44:21.947Z,14.40
2022-12-31T20:46:52.462Z,12.80
2022-12-31T20:49:44.397Z,13.00
2022-12-31T20:51:53.002Z,13.53
2022-12-31T20:54:22.570Z,12.43
2022-12-31T20:56:51.992Z,10.53
2022-12-31T20:59:21.452Z,10.98
2022-12-31T21:02:20.071Z,12.23
2022-12-31T21:04:22.654Z,11.03
2022-12-31T21:06:52.536Z,10.80
2022-12-31T21:09:22.036Z,11.33
2022-12-31T21:12:09.866Z,12.13
2022-12-31T21:14:44.544Z,11.97
2022-12-31T21:17:10.708Z,11.45
2022-12-31T21:19:40.131Z,11.15
2022-12-31T21:22:09.560Z,12.03
2022-12-31T21:24:39.581Z,11.48
2022-12-31T21:27:09.168Z,12.10
2022-12-31T21:30:01.982Z,11.05
2022-12-31T21:32:10.374Z,11.77
2022-12-31T21:34:39.803Z,11.73
2022-12-31T21:37:09.542Z,10.53
2022-12-31T21:39:38.964Z,12.23
2022-12-31T21:42:08.395Z,10.50
2022-12-31T21:44:38.461Z,11.33
2022-12-31T21:47:47.204Z,10.38
2022-12-31T21:49:57.736Z,9.98
2022-12-31T21:52:27.243Z,10.40
2022-12-31T21:55:17.945Z,10.70
2022-12-31T21:58:24.796Z,10.43
2022-12-31T22:00:43.178Z,10.90
2022-12-31T22:03:25.071Z,12.53
2022-12-31T22:05:57.646Z,12.10
2022-12-31T22:16:03.912Z,11.23
2022-12-31T22:18:29.838Z,10.70
2022-12-31T22:21:15.709Z,10.60
2022-12-31T22:23:41.057Z,9.65
2022-12-31T22:26:13.625Z,9.05
2022-12-31T22:31:16.856Z,10.35
2022-12-31T22:33:46.585Z,8.75
2022-12-31T22:36:19.162Z,9.78
2022-12-31T22:38:51.258Z,9.95
2022-12-31T22:41:22.630Z,8.88
2022-12-31T22:44:02.613Z,9.65
2022-12-31T22:46:29.144Z,9.40
2022-12-31T22:54:00.235Z,9.85
2022-12-31T22:56:29.651Z,9.93
2022-12-31T22:58:59.093Z,9.13
2022-12-31T23:01:28.568Z,10.93
2022-12-31T23:03:59.213Z,10.13
2022-12-31T23:14:35.174Z,8.40
2022-12-31T23:17:30.386Z,9.08
2022-12-31T23:20:12.438Z,9.48
2022-12-31T23:22:59.906Z,9.60
2022-12-31T23:25:30.951Z,9.43
2022-12-31T23:28:00.458Z,9.75
2022-12-31T23:30:30.132Z,9.45
2022-12-31T23:33:00.079Z,9.10
2022-12-31T23:35:29.668Z,7.97
2022-12-31T23:37:59.136Z,9.10
2022-12-31T23:40:30.291Z,9.53
2022-12-31T23:42:59.706Z,9.27
2022-12-31T23:45:33.336Z,9.80
2022-12-31T23:48:02.062Z,9.03
2022-12-31T23:50:32.022Z,9.60
2022-12-31T23:53:03.469Z,9.33
2022-12-31T23:55:33.848Z,8.88
2022-12-31T23:58:03.273Z,8.78
